Time;durP1;ratioP1;P1;durP2;ratioP2;P2;SDS_P1;SDS_P2;PMS_P1;PMS_P2;Temp;Humidity;BMP_temperature;BMP_pressure;BME280_temperature;BME280_humidity;BME280_pressure;Samples;Min_cycle;Max_cycle;Signal;HPM_P1;HPM_P2
2022/01/22 00:02:11;;;;;;;;;;;2.90;86.20;;;;;;5078286;28;19912;-74
2022/01/22 00:04:37;;;;;;;;;;;2.90;86.20;;;;;;5078124;28;19931;-74
2022/01/22 00:07:04;;;;;;;;;;;2.90;86.20;;;;;;5076885;28;19916;-74
2022/01/22 00:09:36;;;;;;;;;;;2.90;86.50;;;;;;5077590;28;19995;-74
2022/01/22 00:12:07;;;;;;;;;;;2.90;86.90;;;;;;5078382;28;19952;-73
2022/01/22 00:14:33;;;;;;;;;;;2.90;86.70;;;;;;5078472;28;19909;-73
2022/01/22 00:17:00;;;;;;;;;;;2.90;86.50;;;;;;5078061;28;19908;-73
2022/01/22 00:19:26;;;;;;;;;;;3.00;86.50;;;;;;5072130;28;19909;-73
2022/01/22 00:21:52;;;;;;;;;;;3.00;86.90;;;;;;5070168;28;20010;-73
2022/01/22 00:24:18;;;;;;;;;;;3.00;87.10;;;;;;5077562;28;19909;-73
2022/01/22 00:26:45;;;;;;;;;;;3.00;87.50;;;;;;5078080;28;19909;-74
2022/01/22 00:29:11;;;;;;;;;;;3.00;87.70;;;;;;5078067;28;19962;-74
2022/01/22 00:31:39;;;;;;;;;;;3.10;88.20;;;;;;5076856;28;19909;-74
2022/01/22 00:34:06;;;;;;;;;;;3.10;88.60;;;;;;5076125;28;19908;-74
2022/01/22 00:36:31;;;;;;;;;;;3.10;88.50;;;;;;5076821;28;19966;-74
2022/01/22 00:38:57;;;;;;;;;;;3.10;88.50;;;;;;5064045;28;20282;-73
2022/01/22 00:41:23;;;;;;;;;;;3.10;88.60;;;;;;5077624;28;19999;-73
2022/01/22 00:43:49;;;;;;;;;;;3.00;88.10;;;;;;5077681;28;19912;-73
2022/01/22 00:46:14;;;;;;;;;;;3.00;87.80;;;;;;5078120;28;20348;-73
2022/01/22 00:48:40;;;;;;;;;;;3.00;88.00;;;;;;5076479;28;19913;-73
2022/01/22 00:51:06;;;;;;;;;;;3.00;88.00;;;;;;5077780;28;19909;-73
2022/01/22 00:53:32;;;;;;;;;;;3.00;88.00;;;;;;5077473;28;19952;-73
2022/01/22 00:55:58;;;;;;;;;;;3.00;88.00;;;;;;5077495;28;19936;-73
2022/01/22 00:58:23;;;;;;;;;;;3.00;87.70;;;;;;5077963;28;19908;-73
2022/01/22 01:00:49;;;;;;;;;;;3.00;87.70;;;;;;5077550;28;19958;-74
2022/01/22 01:03:15;;;;;;;;;;;3.10;87.80;;;;;;5077646;28;19912;-73
2022/01/22 01:05:41;;;;;;;;;;;3.10;87.60;;;;;;5077623;28;19909;-74
2022/01/22 01:08:06;;;;;;;;;;;3.00;87.20;;;;;;5077743;28;19963;-73
2022/01/22 01:10:32;;;;;;;;;;;3.10;87.80;;;;;;5077095;28;20011;-73
2022/01/22 01:12:58;;;;;;;;;;;3.10;87.80;;;;;;5077551;28;20325;-73
2022/01/22 01:15:54;;;;;;;;;;;3.10;87.50;;;;;;5077388;28;19992;-73
2022/01/22 01:32:14;;;;;;;;;;;3.20;88.40;;;;;;5077086;28;20011;-74
2022/01/22 01:34:42;;;;;;;;;;;3.20;88.30;;;;;;5075891;28;19916;-74
2022/01/22 01:37:08;;;;;;;;;;;3.20;88.00;;;;;;5077127;28;19946;-74
2022/01/22 01:39:37;;;;;;;;;;;3.20;87.70;;;;;;5075788;28;20431;-74
2022/01/22 01:42:08;;;;;;;;;;;3.20;87.50;;;;;;5076701;28;19927;-74
2022/01/22 01:44:33;;;;;;;;;;;3.20;87.50;;;;;;5075924;28;19915;-73
2022/01/22 01:47:00;;;;;;;;;;;3.30;87.20;;;;;;5077094;28;19908;-74
2022/01/22 01:49:27;;;;;;;;;;;3.30;87.10;;;;;;5077716;28;20489;-74
2022/01/22 01:51:55;;;;;;;;;;;3.30;87.30;;;;;;5079289;28;19915;-74
2022/01/22 01:59:31;;;;;;;;;;;3.30;87.10;;;;;;5080797;28;19916;-74
2022/01/22 02:01:56;;;;;;;;;;;3.30;87.00;;;;;;5080568;28;19908;-74
2022/01/22 02:04:22;;;;;;;;;;;3.30;87.10;;;;;;5080375;28;19952;-73
2022/01/22 02:06:48;;;;;;;;;;;3.30;87.30;;;;;;5080664;28;20003;-73
2022/01/22 02:09:13;;;;;;;;;;;3.30;87.40;;;;;;5079990;28;19909;-73
2022/01/22 02:11:41;;;;;;;;;;;3.30;87.30;;;;;;5079391;28;19922;-73
2022/01/22 02:23:30;;;;;;;;;;;3.40;87.40;;;;;;5078897;28;19908;-73
2022/01/22 02:25:09;;;;;;;;;;;3.40;87.30;;;;;;5080122;28;19915;-74
2022/01/22 02:27:35;;;;;;;;;;;3.40;87.40;;;;;;5080109;28;19947;-74
2022/01/22 02:30:01;;;;;;;;;;;3.40;87.30;;;;;;5080174;28;19908;-74
2022/01/22 02:35:19;;;;;;;;;;;3.30;87.20;;;;;;5080153;28;19915;-74
2022/01/22 02:37:51;;;;;;;;;;;3.30;87.10;;;;;;5080045;28;19916;-74
2022/01/22 02:40:22;;;;;;;;;;;3.30;87.30;;;;;;5079377;28;19908;-74
2022/01/22 02:42:47;;;;;;;;;;;3.30;87.40;;;;;;5079590;28;19928;-74
2022/01/22 02:45:18;;;;;;;;;;;3.30;87.40;;;;;;5078278;28;19908;-74
2022/01/22 02:47:44;;;;;;;;;;;3.40;87.50;;;;;;5080097;28;19915;-73
2022/01/22 02:50:09;;;;;;;;;;;3.40;87.50;;;;;;5079532;28;19932;-73
2022/01/22 02:52:35;;;;;;;;;;;3.40;87.50;;;;;;5079602;28;19908;-74
2022/01/22 02:55:01;;;;;;;;;;;3.40;87.60;;;;;;5073133;28;19916;-73
2022/01/22 02:57:30;;;;;;;;;;;3.40;88.70;;;;;;5059771;28;19913;-74
2022/01/22 02:59:58;;;;;;;;;;;3.40;88.00;;;;;;5059198;28;19908;-74
2022/01/22 03:02:23;;;;;;;;;;;3.40;87.80;;;;;;5059441;28;19920;-73
2022/01/22 03:04:49;;;;;;;;;;;3.40;87.80;;;;;;5059291;28;19909;-74
2022/01/22 03:07:14;;;;;;;;;;;3.40;88.10;;;;;;5058002;28;19913;-73
2022/01/22 03:09:43;;;;;;;;;;;3.50;87.80;;;;;;5058814;28;19921;-73
2022/01/22 03:17:32;;;;;;;;;;;3.50;87.60;;;;;;5078983;28;20371;-73
2022/01/22 03:27:34;;;;;;;;;;;3.50;87.70;;;;;;5078840;28;19915;-74
2022/01/22 03:30:00;;;;;;;;;;;3.50;87.50;;;;;;5078887;28;20338;-74
2022/01/22 03:32:30;;;;;;;;;;;3.50;87.40;;;;;;5078363;28;19916;-73
2022/01/22 03:34:59;;;;;;;;;;;3.50;87.40;;;;;;5078749;28;20275;-73
2022/01/22 03:37:26;;;;;;;;;;;3.50;88.00;;;;;;5078810;28;19915;-74
2022/01/22 03:39:52;;;;;;;;;;;3.50;88.60;;;;;;5078247;28;19908;-73
2022/01/22 03:42:17;;;;;;;;;;;3.50;88.50;;;;;;5078485;28;20329;-73
2022/01/22 03:44:43;;;;;;;;;;;3.50;88.10;;;;;;5078586;28;20335;-75
2022/01/22 03:47:08;;;;;;;;;;;3.50;88.00;;;;;;5078688;28;19923;-73
2022/01/22 03:49:34;;;;;;;;;;;3.50;88.50;;;;;;5078635;28;19999;-73
2022/01/22 03:52:00;;;;;;;;;;;3.60;89.60;;;;;;5078467;28;19919;-74
2022/01/22 03:54:25;;;;;;;;;;;3.60;89.00;;;;;;5077935;28;20318;-73
2022/01/22 03:56:52;;;;;;;;;;;3.60;88.60;;;;;;5078469;28;20449;-73
2022/01/22 03:59:19;;;;;;;;;;;3.50;88.20;;;;;;5078428;28;19909;-73
2022/01/22 04:02:15;;;;;;;;;;;3.50;88.10;;;;;;5078319;28;19954;-73
2022/01/22 04:04:43;;;;;;;;;;;3.60;88.30;;;;;;5078042;28;19912;-73
2022/01/22 04:07:49;;;;;;;;;;;3.60;88.50;;;;;;5078266;28;20378;-74
2022/01/22 04:10:05;;;;;;;;;;;3.60;88.70;;;;;;5068004;28;19908;-74
2022/01/22 04:12:42;;;;;;;;;;;3.60;88.20;;;;;;5077811;28;19908;-74
2022/01/22 04:15:09;;;;;;;;;;;3.60;88.00;;;;;;5078422;28;19909;-74
2022/01/22 04:25:57;;;;;;;;;;;3.70;88.00;;;;;;5077685;28;20401;-74
2022/01/22 04:28:23;;;;;;;;;;;3.70;88.00;;;;;;5078067;28;20420;-73
2022/01/22 04:30:49;;;;;;;;;;;3.70;88.00;;;;;;5077778;28;19924;-73
2022/01/22 04:33:14;;;;;;;;;;;3.70;88.00;;;;;;5077526;28;20400;-74
2022/01/22 04:35:40;;;;;;;;;;;3.70;88.10;;;;;;5077837;28;19944;-74
2022/01/22 04:38:06;;;;;;;;;;;3.70;88.00;;;;;;5078005;28;19908;-74
2022/01/22 04:40:31;;;;;;;;;;;3.70;87.90;;;;;;5077626;28;19952;-74
2022/01/22 04:42:59;;;;;;;;;;;3.80;88.70;;;;;;5077740;28;19928;-73
2022/01/22 04:45:43;;;;;;;;;;;3.80;88.80;;;;;;5078164;28;20015;-74
2022/01/22 04:48:41;;;;;;;;;;;3.80;88.60;;;;;;5077739;28;19997;-73
2022/01/22 04:56:35;;;;;;;;;;;3.80;88.20;;;;;;5077830;28;19962;-73
2022/01/22 04:59:02;;;;;;;;;;;3.80;88.00;;;;;;5077927;28;19909;-73
2022/01/22 05:01:28;;;;;;;;;;;3.80;87.90;;;;;;5077615;28;19915;-73
2022/01/22 05:03:53;;;;;;;;;;;3.70;87.80;;;;;;5076447;28;19982;-73
2022/01/22 05:06:19;;;;;;;;;;;3.70;87.70;;;;;;5077599;28;19962;-73
2022/01/22 05:08:45;;;;;;;;;;;3.80;87.80;;;;;;5077313;28;20252;-73
2022/01/22 05:11:10;;;;;;;;;;;3.80;87.70;;;;;;5076229;28;19909;-74
2022/01/22 05:13:36;;;;;;;;;;;3.80;87.80;;;;;;5076211;28;19915;-73
2022/01/22 05:16:02;;;;;;;;;;;3.80;87.80;;;;;;5077716;28;19916;-73
2022/01/22 05:18:28;;;;;;;;;;;3.80;87.70;;;;;;5077597;28;19908;-73
2022/01/22 05:21:05;;;;;;;;;;;3.80;87.90;;;;;;5075948;28;19915;-74
2022/01/22 05:23:31;;;;;;;;;;;3.80;88.00;;;;;;5077441;28;19916;-74
2022/01/22 05:26:01;;;;;;;;;;;3.80;87.90;;;;;;5079980;28;19908;-73
2022/01/22 05:31:05;;;;;;;;;;;3.80;88.40;;;;;;5068225;28;19975;-74
2022/01/22 05:38:41;;;;;;;;;;;3.80;88.80;;;;;;5080542;28;19915;-73
2022/01/22 05:41:06;;;;;;;;;;;3.80;88.50;;;;;;5079864;28;19908;-74
2022/01/22 05:43:32;;;;;;;;;;;3.80;88.30;;;;;;5080552;28;19952;-73
2022/01/22 05:45:58;;;;;;;;;;;3.80;88.20;;;;;;5080950;28;19909;-73
2022/01/22 05:48:23;;;;;;;;;;;3.90;88.10;;;;;;5080999;28;19909;-73
2022/01/22 05:50:56;;;;;;;;;;;3.80;88.00;;;;;;5080858;28;19913;-73
2022/01/22 06:01:17;;;;;;;;;;;3.90;88.80;;;;;;5080740;28;20299;-73
2022/01/22 06:03:44;;;;;;;;;;;3.90;89.00;;;;;;5080502;28;19913;-73
2022/01/22 06:06:10;;;;;;;;;;;3.90;89.20;;;;;;5079083;28;20403;-73
2022/01/22 06:08:45;;;;;;;;;;;3.90;89.60;;;;;;5080306;28;20073;-73
2022/01/22 06:11:12;;;;;;;;;;;3.90;89.60;;;;;;5080538;28;20287;-73
2022/01/22 06:13:44;;;;;;;;;;;3.90;89.10;;;;;;5080484;28;19912;-73
2022/01/22 06:16:14;;;;;;;;;;;3.90;89.00;;;;;;5067536;28;19958;-73
2022/01/22 06:18:39;;;;;;;;;;;3.90;89.00;;;;;;5080556;28;20367;-73
2022/01/22 06:21:05;;;;;;;;;;;4.00;89.10;;;;;;5078911;28;19938;-73
2022/01/22 06:23:31;;;;;;;;;;;3.90;88.60;;;;;;5078755;28;19912;-73
2022/01/22 06:26:00;;;;;;;;;;;3.90;88.40;;;;;;5079901;28;19916;-73
2022/01/22 06:28:26;;;;;;;;;;;3.90;88.30;;;;;;5080440;28;19912;-74
2022/01/22 06:30:52;;;;;;;;;;;4.00;88.40;;;;;;5065732;28;19908;-74
2022/01/22 06:33:18;;;;;;;;;;;4.00;88.30;;;;;;5079696;28;19916;-74
2022/01/22 06:35:43;;;;;;;;;;;3.90;88.20;;;;;;5080100;28;19912;-73
2022/01/22 06:38:09;;;;;;;;;;;4.00;88.20;;;;;;5079891;28;19938;-73
2022/01/22 06:43:01;;;;;;;;;;;4.00;88.30;;;;;;5079499;28;19932;-74
2022/01/22 06:45:26;;;;;;;;;;;4.00;88.30;;;;;;5078649;28;20394;-73
2022/01/22 06:47:52;;;;;;;;;;;4.00;88.70;;;;;;5079843;28;19916;-73
2022/01/22 06:50:19;;;;;;;;;;;4.00;89.30;;;;;;5079794;28;19908;-74
2022/01/22 06:52:45;;;;;;;;;;;4.00;89.30;;;;;;5079623;28;19908;-73
2022/01/22 06:55:14;;;;;;;;;;;4.00;88.90;;;;;;5079391;28;20004;-74
2022/01/22 06:57:40;;;;;;;;;;;4.00;88.70;;;;;;5079638;28;19913;-73
2022/01/22 07:00:06;;;;;;;;;;;4.00;88.60;;;;;;5079693;28;19915;-74
2022/01/22 07:02:32;;;;;;;;;;;4.00;88.50;;;;;;5079453;28;19999;-73
2022/01/22 07:04:57;;;;;;;;;;;4.00;88.60;;;;;;5079556;28;20018;-73
2022/01/22 07:07:23;;;;;;;;;;;4.00;88.50;;;;;;5079347;28;19909;-74
2022/01/22 07:09:49;;;;;;;;;;;4.00;88.50;;;;;;5079177;28;19909;-74
2022/01/22 07:12:14;;;;;;;;;;;4.00;88.50;;;;;;5079090;28;19908;-74
2022/01/22 07:14:41;;;;;;;;;;;4.00;88.70;;;;;;5077952;28;20009;-74
2022/01/22 07:17:07;;;;;;;;;;;4.00;88.70;;;;;;5079173;28;20598;-73
2022/01/22 07:19:39;;;;;;;;;;;4.00;88.90;;;;;;5073112;28;19944;-74
2022/01/22 07:22:18;;;;;;;;;;;4.00;89.00;;;;;;5072805;28;19909;-73
2022/01/22 07:24:44;;;;;;;;;;;4.10;89.20;;;;;;5078745;28;19913;-74
2022/01/22 07:27:09;;;;;;;;;;;4.10;89.40;;;;;;5078995;28;20383;-74
2022/01/22 07:29:35;;;;;;;;;;;4.10;90.00;;;;;;5079092;28;20314;-74
2022/01/22 07:32:03;;;;;;;;;;;4.10;90.10;;;;;;5078910;28;19952;-74
2022/01/22 07:34:28;;;;;;;;;;;4.20;90.30;;;;;;5077484;28;19908;-74
2022/01/22 07:36:54;;;;;;;;;;;4.10;90.30;;;;;;5078741;28;19908;-74
2022/01/22 07:39:20;;;;;;;;;;;4.10;90.10;;;;;;5078410;28;19947;-74
2022/01/22 07:41:46;;;;;;;;;;;4.10;89.90;;;;;;5078345;28;20054;-74
2022/01/22 07:44:12;;;;;;;;;;;4.10;89.70;;;;;;5078561;28;20399;-74
2022/01/22 07:46:37;;;;;;;;;;;4.10;89.60;;;;;;5078225;28;19958;-74
2022/01/22 07:49:05;;;;;;;;;;;4.20;89.50;;;;;;5078140;28;19908;-73
2022/01/22 07:51:31;;;;;;;;;;;4.20;89.20;;;;;;5078321;28;19940;-74
2022/01/22 07:53:56;;;;;;;;;;;4.20;89.00;;;;;;5078092;28;19908;-74
2022/01/22 07:56:22;;;;;;;;;;;4.20;89.00;;;;;;5078339;28;19915;-74
2022/01/22 07:58:48;;;;;;;;;;;4.20;89.00;;;;;;5077445;28;19995;-74
2022/01/22 08:01:14;;;;;;;;;;;4.20;89.10;;;;;;5078506;28;19947;-74
2022/01/22 08:03:40;;;;;;;;;;;4.20;89.20;;;;;;5076900;28;19924;-74
2022/01/22 08:06:05;;;;;;;;;;;4.20;89.40;;;;;;5076846;28;19999;-73
2022/01/22 08:08:34;;;;;;;;;;;4.20;89.30;;;;;;5078101;28;20050;-74
2022/01/22 08:11:00;;;;;;;;;;;4.30;89.80;;;;;;5078161;28;19909;-74
2022/01/22 08:13:25;;;;;;;;;;;4.30;89.80;;;;;;5078147;28;19915;-74
2022/01/22 08:15:51;;;;;;;;;;;4.30;89.80;;;;;;5077973;28;19909;-73
2022/01/22 08:18:17;;;;;;;;;;;4.30;90.00;;;;;;5078189;28;19908;-73
2022/01/22 08:20:42;;;;;;;;;;;4.30;90.00;;;;;;5076605;28;19916;-73
2022/01/22 08:23:08;;;;;;;;;;;4.40;90.00;;;;;;5078099;28;19919;-73
2022/01/22 08:25:34;;;;;;;;;;;4.40;89.90;;;;;;5077502;28;19908;-74
2022/01/22 08:30:35;;;;;;;;;;;4.40;89.70;;;;;;5077870;28;19909;-72
2022/01/22 08:35:54;;;;;;;;;;;4.40;89.70;;;;;;5076537;28;19916;-73
2022/01/22 08:38:24;;;;;;;;;;;4.50;89.60;;;;;;5076383;28;20411;-80
2022/01/22 08:40:50;;;;;;;;;;;4.50;89.50;;;;;;5077552;28;20104;-70
2022/01/22 08:43:17;;;;;;;;;;;4.50;90.00;;;;;;5077334;28;19977;-70
2022/01/22 08:45:43;;;;;;;;;;;4.50;89.40;;;;;;5077705;28;19908;-71
2022/01/22 08:48:09;;;;;;;;;;;4.50;89.70;;;;;;5077508;28;19909;-69
2022/01/22 08:50:35;;;;;;;;;;;4.60;89.60;;;;;;5077804;28;19909;-71
2022/01/22 08:53:01;;;;;;;;;;;4.60;89.60;;;;;;5075228;28;19923;-72
2022/01/22 08:55:27;;;;;;;;;;;4.60;89.60;;;;;;5076660;28;19912;-70
2022/01/22 08:57:52;;;;;;;;;;;4.60;89.70;;;;;;5077212;28;20264;-69
2022/01/22 09:00:19;;;;;;;;;;;4.70;89.70;;;;;;5081486;28;19963;-70
2022/01/22 09:02:45;;;;;;;;;;;4.70;89.60;;;;;;5081321;28;19920;-69
2022/01/22 09:05:12;;;;;;;;;;;4.80;90.00;;;;;;5081826;28;19912;-69
2022/01/22 09:07:37;;;;;;;;;;;4.80;89.90;;;;;;5081521;28;19956;-70
2022/01/22 09:10:04;;;;;;;;;;;4.80;89.90;;;;;;5081154;28;19931;-77
2022/01/22 09:12:29;;;;;;;;;;;4.90;90.00;;;;;;5079781;28;20007;-73
2022/01/22 09:14:55;;;;;;;;;;;4.90;90.00;;;;;;5079985;28;19940;-73
2022/01/22 09:17:22;;;;;;;;;;;4.90;89.90;;;;;;5080850;28;19908;-73
2022/01/22 09:19:47;;;;;;;;;;;5.00;90.00;;;;;;5079909;28;19966;-73
2022/01/22 09:22:13;;;;;;;;;;;5.00;90.00;;;;;;5081036;28;19916;-72
2022/01/22 09:24:40;;;;;;;;;;;5.10;90.10;;;;;;5080970;28;19943;-72
2022/01/22 09:27:06;;;;;;;;;;;5.10;90.00;;;;;;5081084;28;19934;-73
2022/01/22 09:29:34;;;;;;;;;;;5.20;90.10;;;;;;5079799;28;19908;-72
2022/01/22 09:32:00;;;;;;;;;;;5.20;90.00;;;;;;5081196;28;19917;-72
2022/01/22 09:34:25;;;;;;;;;;;5.20;89.80;;;;;;5078158;28;19915;-72
2022/01/22 09:36:51;;;;;;;;;;;5.20;89.70;;;;;;5080795;28;19915;-74
2022/01/22 09:39:17;;;;;;;;;;;5.30;89.80;;;;;;5080288;28;19931;-73
2022/01/22 09:41:44;;;;;;;;;;;5.30;89.90;;;;;;5080366;28;19920;-72
2022/01/22 09:44:10;;;;;;;;;;;5.40;90.00;;;;;;5080557;28;19917;-71
2022/01/22 09:46:36;;;;;;;;;;;5.40;90.00;;;;;;5079760;28;19909;-71
2022/01/22 09:49:02;;;;;;;;;;;5.40;89.90;;;;;;5080601;28;20500;-70
2022/01/22 09:51:28;;;;;;;;;;;5.40;89.70;;;;;;5080593;28;19970;-71
2022/01/22 09:53:53;;;;;;;;;;;5.50;89.70;;;;;;5078090;28;19909;-71
2022/01/22 09:56:21;;;;;;;;;;;5.50;89.70;;;;;;5080376;28;20011;-70
2022/01/22 09:58:48;;;;;;;;;;;5.50;89.70;;;;;;5080247;28;19913;-71
2022/01/22 10:01:17;;;;;;;;;;;5.60;89.70;;;;;;5080561;28;19908;-70
2022/01/22 10:03:43;;;;;;;;;;;5.60;89.70;;;;;;5080505;28;19916;-70
2022/01/22 10:06:19;;;;;;;;;;;5.70;89.80;;;;;;5080292;28;19957;-70
2022/01/22 10:08:44;;;;;;;;;;;5.70;89.80;;;;;;5079494;28;19908;-70
2022/01/22 10:11:17;;;;;;;;;;;5.70;89.70;;;;;;5079433;28;20439;-70
2022/01/22 10:13:47;;;;;;;;;;;5.80;89.70;;;;;;5078808;28;19908;-71
2022/01/22 10:16:20;;;;;;;;;;;5.80;89.80;;;;;;5080036;28;20406;-71
2022/01/22 10:19:06;;;;;;;;;;;5.90;89.80;;;;;;5079752;28;19944;-70
2022/01/22 10:21:32;;;;;;;;;;;5.90;89.70;;;;;;5069561;28;19915;-70
2022/01/22 10:24:17;;;;;;;;;;;6.00;89.70;;;;;;5079896;28;19924;-71
2022/01/22 10:26:43;;;;;;;;;;;6.00;89.60;;;;;;5080114;28;19908;-70
2022/01/22 10:29:11;;;;;;;;;;;6.10;89.70;;;;;;5079970;28;19916;-70
2022/01/22 10:31:40;;;;;;;;;;;6.10;89.90;;;;;;5080077;28;19912;-71
2022/01/22 10:34:10;;;;;;;;;;;6.20;89.90;;;;;;5077862;28;19908;-71
2022/01/22 10:36:36;;;;;;;;;;;6.30;89.90;;;;;;5079795;28;19913;-70
2022/01/22 10:39:06;;;;;;;;;;;6.30;90.00;;;;;;5079284;28;19915;-70
2022/01/22 10:41:36;;;;;;;;;;;6.30;89.90;;;;;;5079747;28;19909;-70
2022/01/22 10:44:03;;;;;;;;;;;6.40;89.90;;;;;;5080060;28;19912;-70
2022/01/22 10:46:43;;;;;;;;;;;6.40;89.90;;;;;;5079695;28;20286;-70
2022/01/22 10:49:13;;;;;;;;;;;6.50;90.00;;;;;;5079744;28;19912;-70
2022/01/22 10:51:49;;;;;;;;;;;6.60;90.00;;;;;;5079416;28;20054;-71
2022/01/22 10:54:16;;;;;;;;;;;6.60;89.80;;;;;;5077479;28;19909;-71
2022/01/22 10:56:42;;;;;;;;;;;6.60;89.70;;;;;;5079004;28;19909;-71
2022/01/22 10:59:11;;;;;;;;;;;6.70;89.70;;;;;;5079031;28;19908;-72
2022/01/22 11:01:43;;;;;;;;;;;6.70;89.70;;;;;;5064729;28;19908;-78
2022/01/22 11:04:19;;;;;;;;;;;6.80;89.70;;;;;;5078104;28;19913;-75
2022/01/22 11:06:51;;;;;;;;;;;6.90;89.70;;;;;;5078285;28;19951;-73
2022/01/22 11:09:17;;;;;;;;;;;6.90;89.60;;;;;;5078774;28;19952;-79
2022/01/22 11:11:43;;;;;;;;;;;6.90;89.60;;;;;;5078073;28;19909;-81
2022/01/22 11:14:10;;;;;;;;;;;7.00;89.70;;;;;;5074865;28;20010;-78
2022/01/22 11:16:37;;;;;;;;;;;7.00;89.50;;;;;;5077953;28;20377;-77
2022/01/22 11:19:03;;;;;;;;;;;7.10;89.10;;;;;;5076988;28;19908;-78
2022/01/22 11:21:29;;;;;;;;;;;7.10;88.90;;;;;;5078842;28;19916;-80
2022/01/22 11:23:55;;;;;;;;;;;7.10;88.60;;;;;;5077758;28;20275;-78
2022/01/22 11:26:20;;;;;;;;;;;7.10;88.20;;;;;;5077868;28;19912;-76
2022/01/22 11:28:51;;;;;;;;;;;7.10;88.10;;;;;;5078600;28;19908;-79
2022/01/22 11:31:17;;;;;;;;;;;7.20;88.20;;;;;;5078740;28;19912;-87
2022/01/22 11:33:43;;;;;;;;;;;7.20;88.20;;;;;;5076872;28;19908;-85
2022/01/22 11:36:16;;;;;;;;;;;7.20;88.00;;;;;;5078400;28;19908;-76
2022/01/22 11:38:48;;;;;;;;;;;7.30;88.00;;;;;;5078046;28;19944;-81
2022/01/22 11:41:18;;;;;;;;;;;7.30;88.20;;;;;;5077418;28;20381;-81
2022/01/22 11:44:14;;;;;;;;;;;7.40;88.20;;;;;;5078411;28;19929;-80
2022/01/22 11:46:43;;;;;;;;;;;7.40;88.00;;;;;;5078427;28;20181;-76
2022/01/22 11:49:22;;;;;;;;;;;7.50;87.90;;;;;;5078728;28;19916;-82
2022/01/22 11:51:49;;;;;;;;;;;7.50;87.90;;;;;;5078237;28;19957;-74
2022/01/22 11:54:16;;;;;;;;;;;7.60;87.90;;;;;;5076265;28;19915;-77
2022/01/22 11:56:49;;;;;;;;;;;7.60;87.70;;;;;;5076289;28;19908;-78
2022/01/22 11:59:15;;;;;;;;;;;7.60;87.60;;;;;;5076258;28;20359;-80
2022/01/22 12:01:45;;;;;;;;;;;7.70;86.90;;;;;;5078070;28;19909;-77
2022/01/22 12:04:15;;;;;;;;;;;7.70;86.50;;;;;;5077620;28;19912;-75
2022/01/22 12:07:00;;;;;;;;;;;7.70;86.60;;;;;;5077941;28;19923;-74
2022/01/22 12:09:26;;;;;;;;;;;7.80;86.20;;;;;;5077447;28;20442;-76
2022/01/22 12:14:53;;;;;;;;;;;7.90;86.30;;;;;;5045145;28;19917;-72
2022/01/22 12:17:39;;;;;;;;;;;7.90;85.90;;;;;;5074384;28;19915;-76
2022/01/22 12:20:18;;;;;;;;;;;7.90;85.90;;;;;;5076274;28;19972;-72
2022/01/22 12:22:43;;;;;;;;;;;8.00;86.10;;;;;;5077708;28;19916;-72
2022/01/22 12:25:09;;;;;;;;;;;8.00;86.00;;;;;;5077421;28;19973;-73
2022/01/22 12:27:41;;;;;;;;;;;8.00;85.80;;;;;;5077878;28;19958;-73
2022/01/22 12:30:07;;;;;;;;;;;8.10;85.70;;;;;;5077656;28;20360;-74
2022/01/22 12:32:42;;;;;;;;;;;8.10;85.90;;;;;;5076798;28;19908;-73
2022/01/22 12:35:09;;;;;;;;;;;8.20;86.10;;;;;;5076624;28;19944;-72
2022/01/22 12:37:42;;;;;;;;;;;8.30;85.70;;;;;;5077492;28;19912;-72
2022/01/22 12:40:09;;;;;;;;;;;8.30;85.60;;;;;;5077034;28;19909;-81
2022/01/22 12:42:51;;;;;;;;;;;8.30;85.30;;;;;;5077351;28;19925;-70
2022/01/22 12:45:20;;;;;;;;;;;8.30;85.20;;;;;;5076916;28;20466;-75
2022/01/22 12:47:48;;;;;;;;;;;8.30;84.70;;;;;;5076225;28;20015;-75
2022/01/22 12:50:13;;;;;;;;;;;8.30;84.40;;;;;;5077340;28;19916;-72
2022/01/22 12:52:41;;;;;;;;;;;8.30;84.70;;;;;;5077698;28;19908;-72
2022/01/22 12:55:18;;;;;;;;;;;8.30;85.50;;;;;;5064040;28;19908;-72
2022/01/22 12:57:44;;;;;;;;;;;8.40;85.00;;;;;;5077373;28;20315;-72
2022/01/22 13:00:14;;;;;;;;;;;8.40;85.30;;;;;;5077512;28;19915;-72
2022/01/22 13:02:41;;;;;;;;;;;8.50;85.20;;;;;;5076113;28;19924;-74
2022/01/22 13:05:08;;;;;;;;;;;8.50;84.30;;;;;;5076491;28;19915;-74
2022/01/22 13:07:37;;;;;;;;;;;8.50;83.80;;;;;;5075649;28;19912;-74
2022/01/22 13:10:06;;;;;;;;;;;8.60;84.10;;;;;;5077001;28;19958;-74
2022/01/22 13:12:34;;;;;;;;;;;8.60;84.10;;;;;;5077343;28;19915;-74
2022/01/22 13:15:00;;;;;;;;;;;8.60;83.20;;;;;;5077249;28;19908;-74
2022/01/22 13:17:29;;;;;;;;;;;8.60;83.10;;;;;;5077099;28;19965;-74
2022/01/22 13:19:55;;;;;;;;;;;8.60;83.40;;;;;;5075745;28;20368;-74
2022/01/22 13:22:29;;;;;;;;;;;8.70;83.40;;;;;;5075676;28;19966;-73
2022/01/22 13:25:02;;;;;;;;;;;8.70;83.50;;;;;;5075387;28;19951;-74
2022/01/22 13:27:29;;;;;;;;;;;8.70;83.90;;;;;;5075626;28;19915;-73
2022/01/22 13:29:56;;;;;;;;;;;8.70;83.80;;;;;;5077219;28;19908;-73
2022/01/22 13:48:58;;;;;;;;;;;8.80;83.40;;;;;;5069287;28;20271;-74
2022/01/22 13:51:24;;;;;;;;;;;8.80;83.20;;;;;;5079380;28;19909;-73
2022/01/22 13:53:50;;;;;;;;;;;8.80;82.30;;;;;;5078132;28;19909;-74
2022/01/22 13:56:17;;;;;;;;;;;8.80;81.30;;;;;;5080163;28;20477;-73
2022/01/22 13:58:43;;;;;;;;;;;8.90;80.00;;;;;;5080167;28;19908;-73
2022/01/22 14:01:17;;;;;;;;;;;8.80;79.50;;;;;;5080027;28;19917;-74
2022/01/22 14:03:45;;;;;;;;;;;8.80;80.90;;;;;;5080351;28;19916;-73
2022/01/22 14:06:11;;;;;;;;;;;8.70;81.00;;;;;;5078026;28;19992;-73
2022/01/22 14:08:36;;;;;;;;;;;8.70;81.70;;;;;;5078750;28;19909;-74
2022/01/22 14:11:03;;;;;;;;;;;8.70;82.00;;;;;;5079479;28;19954;-75
2022/01/22 14:13:29;;;;;;;;;;;8.70;80.70;;;;;;5078452;28;19916;-73
2022/01/22 14:15:55;;;;;;;;;;;8.70;80.90;;;;;;5079694;28;20371;-74
2022/01/22 14:18:22;;;;;;;;;;;8.70;81.00;;;;;;5079909;28;19991;-74
2022/01/22 14:21:07;;;;;;;;;;;8.60;80.50;;;;;;5078579;28;19915;-73
2022/01/22 14:23:34;;;;;;;;;;;8.60;80.50;;;;;;5079865;28;19920;-73
2022/01/22 14:26:04;;;;;;;;;;;8.60;81.20;;;;;;5079729;28;20349;-74
2022/01/22 14:28:36;;;;;;;;;;;8.60;81.70;;;;;;5079894;28;19956;-74
2022/01/22 14:31:15;;;;;;;;;;;8.60;81.90;;;;;;5080057;28;19915;-74
2022/01/22 14:33:41;;;;;;;;;;;8.60;82.20;;;;;;5079311;28;19919;-74
2022/01/22 14:36:07;;;;;;;;;;;8.60;83.20;;;;;;5080027;28;19968;-75
2022/01/22 14:44:07;;;;;;;;;;;8.70;81.50;;;;;;5047742;28;20391;-77
2022/01/22 14:46:42;;;;;;;;;;;8.70;81.80;;;;;;5059468;28;20002;-75
2022/01/22 14:49:08;;;;;;;;;;;8.60;81.10;;;;;;5059545;28;19913;-75
2022/01/22 14:51:34;;;;;;;;;;;8.70;82.00;;;;;;5059215;28;20016;-78
2022/01/22 14:53:59;;;;;;;;;;;8.70;82.20;;;;;;5059044;28;19948;-78
2022/01/22 14:56:25;;;;;;;;;;;8.70;82.30;;;;;;5057924;28;20283;-77
2022/01/22 14:58:50;;;;;;;;;;;8.70;81.80;;;;;;5058852;28;19912;-81
2022/01/22 15:01:16;;;;;;;;;;;8.60;81.90;;;;;;5058913;28;19958;-79
2022/01/22 15:03:42;;;;;;;;;;;8.70;81.30;;;;;;5053771;28;19919;-81
2022/01/22 15:06:07;;;;;;;;;;;8.70;81.20;;;;;;5057708;28;19915;-78
2022/01/22 15:08:33;;;;;;;;;;;8.60;81.40;;;;;;5058458;28;19952;-80
2022/01/22 15:10:59;;;;;;;;;;;8.60;81.40;;;;;;5057186;28;19909;-80
2022/01/22 15:13:24;;;;;;;;;;;8.60;81.40;;;;;;5059139;28;19909;-80
2022/01/22 15:15:58;;;;;;;;;;;8.60;81.10;;;;;;5059046;28;20000;-80
2022/01/22 15:18:50;;;;;;;;;;;8.60;81.00;;;;;;5058959;28;19958;-80
2022/01/22 15:21:12;;;;;;;;;;;8.50;81.30;;;;;;5057378;28;19909;-80
2022/01/22 15:23:38;;;;;;;;;;;8.50;81.70;;;;;;5053047;28;19920;-79
2022/01/22 15:26:05;;;;;;;;;;;8.50;81.20;;;;;;5053916;28;19916;-80
2022/01/22 15:28:42;;;;;;;;;;;8.40;81.40;;;;;;5058345;28;19913;-79
2022/01/22 15:31:15;;;;;;;;;;;8.40;81.20;;;;;;5056913;28;20003;-78
2022/01/22 15:33:52;;;;;;;;;;;8.40;80.90;;;;;;5049781;28;19956;-78
2022/01/22 15:36:17;;;;;;;;;;;8.40;80.70;;;;;;5056262;28;19959;-77
2022/01/22 15:38:43;;;;;;;;;;;8.40;81.40;;;;;;5057861;28;19913;-78
2022/01/22 15:41:09;;;;;;;;;;;8.30;81.60;;;;;;5058536;28;19931;-78
2022/01/22 15:43:34;;;;;;;;;;;8.30;82.10;;;;;;5077581;28;19924;-80
2022/01/22 15:46:00;;;;;;;;;;;8.30;81.90;;;;;;5078565;28;20004;-76
2022/01/22 15:48:25;;;;;;;;;;;8.30;82.10;;;;;;5077338;28;19954;-78
2022/01/22 15:50:51;;;;;;;;;;;8.30;81.60;;;;;;5077420;28;19915;-78
2022/01/22 15:53:17;;;;;;;;;;;8.30;81.70;;;;;;5076476;28;19912;-79
2022/01/22 15:55:44;;;;;;;;;;;8.30;81.80;;;;;;5078262;28;20288;-78
2022/01/22 15:58:10;;;;;;;;;;;8.20;82.10;;;;;;5078176;28;19909;-78
2022/01/22 16:00:38;;;;;;;;;;;8.20;82.10;;;;;;5077033;28;19931;-80
2022/01/22 16:03:04;;;;;;;;;;;8.20;82.10;;;;;;5077841;28;19912;-81
2022/01/22 16:05:30;;;;;;;;;;;8.20;82.40;;;;;;5078163;28;19915;-80
2022/01/22 16:07:56;;;;;;;;;;;8.20;82.20;;;;;;5077432;28;20355;-78
2022/01/22 16:10:21;;;;;;;;;;;8.20;82.30;;;;;;5076423;28;19912;-79
2022/01/22 16:12:48;;;;;;;;;;;8.10;82.50;;;;;;5077731;28;20386;-77
2022/01/22 16:15:14;;;;;;;;;;;8.10;82.70;;;;;;5077878;28;19908;-80
2022/01/22 16:17:40;;;;;;;;;;;8.10;82.20;;;;;;5077790;28;19915;-76
2022/01/22 16:20:06;;;;;;;;;;;8.10;82.50;;;;;;5076635;28;19908;-77
2022/01/22 16:22:31;;;;;;;;;;;8.00;82.50;;;;;;5076046;28;19962;-81